Time;durP1;ratioP1;P1;durP2;ratioP2;P2;SDS_P1;SDS_P2;PMS_P1;PMS_P2;Temp;Humidity;BMP_temperature;BMP_pressure;BME280_temperature;BME280_humidity;BME280_pressure;Samples;Min_cycle;Max_cycle;Signal;HPM_P1;HPM_P2
2021/03/04 00:00:34;;;;;;;82.75;33.98;;;;;;;-2.73;88.16;100471.66;1685464;85;21199;-65
2021/03/04 00:03:05;;;;;;;82.05;34.78;;;;;;;-2.77;87.99;100465.55;1720495;83;21614;-65
2021/03/04 00:05:35;;;;;;;77.92;33.25;;;;;;;-2.78;88.20;100465.11;1720604;83;21159;-65
2021/03/04 00:08:04;;;;;;;69.20;31.97;;;;;;;-2.81;88.15;100463.73;1720194;83;22292;-64
2021/03/04 00:10:33;;;;;;;77.60;33.48;;;;;;;-2.88;88.05;100454.13;1720437;83;21183;-64
2021/03/04 00:13:01;;;;;;;66.82;27.73;;;;;;;-2.92;88.17;100454.92;1720464;83;22269;-65
2021/03/04 00:15:31;;;;;;;75.50;32.90;;;;;;;-2.98;88.63;100441.89;1685527;85;21570;-65
2021/03/04 00:18:00;;;;;;;85.47;33.00;;;;;;;-3.00;89.15;100438.40;1720435;82;21179;-64
2021/03/04 00:20:30;;;;;;;69.05;29.55;;;;;;;-2.99;89.44;100431.11;1684662;85;21387;-63
2021/03/04 00:22:59;;;;;;;78.55;34.80;;;;;;;-3.01;89.44;100422.50;1700186;84;21615;-62
2021/03/04 00:25:30;;;;;;;69.53;31.07;;;;;;;-3.01;89.99;100425.94;1681005;85;21156;-65
2021/03/04 00:27:58;;;;;;;72.20;30.85;;;;;;;-3.02;90.59;100417.73;1720448;83;21227;-65
2021/03/04 00:30:26;;;;;;;70.70;32.53;;;;;;;-3.01;90.56;100414.34;1720427;83;21155;-65
2021/03/04 00:32:54;;;;;;;63.13;28.52;;;;;;;-3.02;90.93;100412.59;1720300;82;21394;-64
2021/03/04 00:35:23;;;;;;;85.77;35.50;;;;;;;-2.99;90.79;100411.78;1720507;83;21178;-64
2021/03/04 00:37:51;;;;;;;100.93;38.87;;;;;;;-3.00;90.75;100399.75;1685449;84;21130;-64
2021/03/04 00:40:21;;;;;;;105.03;36.33;;;;;;;-3.02;90.49;100396.27;1720356;83;21276;-64
2021/03/04 00:42:49;;;;;;;131.47;43.77;;;;;;;-3.10;89.95;100388.80;1720294;83;21239;-64
2021/03/04 00:45:22;;;;;;;93.87;36.75;;;;;;;-3.13;90.58;100383.13;1720341;83;21437;-65
2021/03/04 00:47:52;;;;;;;100.72;38.73;;;;;;;-3.15;90.83;100386.13;1728955;82;21162;-65
2021/03/04 00:50:22;;;;;;;100.97;37.70;;;;;;;-3.16;90.70;100390.38;1707122;83;21232;-62
2021/03/04 00:52:50;;;;;;;85.57;34.47;;;;;;;-3.16;91.10;100384.36;1723543;82;21219;-65
2021/03/04 00:55:19;;;;;;;65.20;28.43;;;;;;;-3.17;91.17;100380.92;1706686;84;21127;-64
2021/03/04 00:57:46;;;;;;;72.25;29.18;;;;;;;-3.11;91.44;100379.31;1706429;84;21291;-64
2021/03/04 01:00:16;;;;;;;54.80;25.87;;;;;;;-3.06;91.98;100372.55;1706349;84;21190;-65
2021/03/04 01:02:44;;;;;;;56.77;25.73;;;;;;;-2.97;92.39;100367.59;1706477;84;21135;-64
2021/03/04 01:05:13;;;;;;;59.27;24.30;;;;;;;-2.83;93.06;100361.05;1706597;84;21187;-64
2021/03/04 01:07:42;;;;;;;47.83;22.85;;;;;;;-2.72;93.20;100356.09;1706712;84;21650;-64
2021/03/04 01:10:15;;;;;;;49.03;21.60;;;;;;;-2.61;93.44;100355.89;1706477;84;21295;-67
2021/03/04 01:12:43;;;;;;;48.42;21.85;;;;;;;-2.46;93.71;100357.92;1718950;82;21203;-64
2021/03/04 01:15:15;;;;;;;49.55;21.73;;;;;;;-2.34;93.67;100354.70;1706477;83;21148;-64
2021/03/04 01:17:43;;;;;;;50.08;22.75;;;;;;;-2.23;93.24;100357.45;1742236;82;21650;-65
2021/03/04 01:20:14;;;;;;;48.45;22.13;;;;;;;-2.16;92.78;100352.88;1704221;84;21228;-64
2021/03/04 01:22:43;;;;;;;45.23;22.42;;;;;;;-2.10;92.47;100346.52;1692570;84;21198;-64
2021/03/04 01:25:11;;;;;;;50.17;21.55;;;;;;;-2.05;92.26;100342.30;1664317;86;21198;-65
2021/03/04 01:27:39;;;;;;;45.23;21.30;;;;;;;-1.98;92.56;100342.89;1729903;82;21198;-63
2021/03/04 01:30:10;;;;;;;46.58;22.45;;;;;;;-1.92;91.99;100339.09;1729933;82;21236;-63
2021/03/04 01:32:39;;;;;;;52.88;20.62;;;;;;;-1.90;91.70;100333.97;1730050;82;21152;-61
2021/03/04 01:35:09;;;;;;;45.63;20.48;;;;;;;-1.89;91.72;100330.53;1729984;82;22338;-61
2021/03/04 01:37:37;;;;;;;51.95;22.87;;;;;;;-1.85;91.49;100321.14;1729844;82;21195;-63
2021/03/04 01:40:10;;;;;;;53.05;22.85;;;;;;;-1.82;91.51;100323.77;1730121;82;21148;-63
2021/03/04 01:42:37;;;;;;;49.88;22.05;;;;;;;-1.79;91.44;100317.38;1730016;82;21245;-63
2021/03/04 01:45:07;;;;;;;47.50;19.57;;;;;;;-1.74;91.61;100318.31;1729987;82;21128;-64
2021/03/04 01:47:39;;;;;;;50.52;21.27;;;;;;;-1.69;91.74;100314.08;1729988;82;21247;-62
2021/03/04 01:50:10;;;;;;;54.80;23.15;;;;;;;-1.65;91.67;100310.70;1730265;82;21196;-65
2021/03/04 01:52:38;;;;;;;52.98;22.10;;;;;;;-1.58;92.07;100305.22;1730174;82;21789;-64
2021/03/04 01:55:07;;;;;;;56.70;22.82;;;;;;;-1.54;91.88;100297.53;1730008;82;21679;-64
2021/03/04 01:57:36;;;;;;;59.18;24.52;;;;;;;-1.52;91.85;100298.43;1730111;82;22110;-63
2021/03/04 02:00:09;;;;;;;59.18;23.85;;;;;;;-1.47;92.42;100290.75;1735491;82;22421;-63
2021/03/04 02:02:38;;;;;;;62.70;23.22;;;;;;;-1.43;92.36;100281.31;1729849;82;21156;-64
2021/03/04 02:05:11;;;;;;;61.30;24.23;;;;;;;-1.39;92.47;100278.79;1729913;82;21659;-63
2021/03/04 02:07:57;;;;;;;72.03;24.67;;;;;;;-1.35;92.64;100277.99;1729805;82;21215;-64
2021/03/04 02:10:50;;;;;;;66.92;25.97;;;;;;;-1.32;92.38;100272.86;1729959;82;21195;-64
2021/03/04 02:13:37;;;;;;;54.42;22.07;;;;;;;-1.29;92.41;100260.40;1729814;82;21374;-64
2021/03/04 02:16:12;;;;;;;66.30;24.72;;;;;;;-1.25;92.38;100261.32;1729855;82;21179;-64
2021/03/04 02:18:43;;;;;;;70.22;26.27;;;;;;;-1.27;92.40;100260.00;1735591;82;21143;-65
2021/03/04 02:24:29;;;;;;;57.60;22.60;;;;;;;-1.22;93.04;100253.20;1835157;78;22699;-63
2021/03/04 02:27:06;;;;;;;67.75;25.60;;;;;;;-1.24;93.06;100244.95;1776751;79;21139;-65
2021/03/04 02:29:41;;;;;;;68.30;26.25;;;;;;;-1.20;93.37;100237.25;1767985;80;21662;-64
2021/03/04 02:32:10;;;;;;;66.75;26.45;;;;;;;-1.16;93.71;100238.17;1747427;82;22200;-64
2021/03/04 02:34:49;;;;;;;69.00;27.02;;;;;;;-1.17;93.52;100233.44;1747445;82;22209;-63
2021/03/04 02:37:20;;;;;;;66.62;25.50;;;;;;;-1.09;93.83;100228.35;1777767;75;21117;-71
2021/03/04 02:39:49;;;;;;;74.42;26.02;;;;;;;-1.09;93.65;100221.45;1855144;77;21153;-73
2021/03/04 02:42:20;;;;;;;67.75;26.30;;;;;;;-1.08;93.40;100227.09;1839983;78;21407;-73
2021/03/04 02:44:50;;;;;;;67.42;25.35;;;;;;;-1.03;93.50;100218.52;1840006;78;21253;-73
2021/03/04 02:47:18;;;;;;;74.30;28.07;;;;;;;-1.02;93.85;100226.71;1840212;78;21142;-73
2021/03/04 02:49:47;;;;;;;62.33;22.15;;;;;;;-1.06;93.52;100203.42;1840207;78;21190;-72
2021/03/04 02:52:17;;;;;;;62.40;24.07;;;;;;;-1.02;93.84;100199.13;1787016;77;21166;-63
2021/03/04 02:54:45;;;;;;;71.85;26.87;;;;;;;-1.00;93.57;100190.11;1749760;82;21405;-63
2021/03/04 02:57:13;;;;;;;82.15;28.70;;;;;;;-0.99;93.49;100188.84;1749653;82;21170;-64
2021/03/04 02:59:43;;;;;;;62.67;24.47;;;;;;;-1.00;93.64;100178.05;1749805;82;21162;-63
2021/03/04 03:02:11;;;;;;;73.37;27.62;;;;;;;-0.96;93.50;100178.97;1749694;82;21178;-64
2021/03/04 03:04:40;;;;;;;60.52;23.52;;;;;;;-0.91;93.80;100168.23;1729300;82;21191;-64
2021/03/04 03:07:09;;;;;;;76.67;27.87;;;;;;;-0.90;93.58;100164.78;1768195;76;22220;-64
2021/03/04 03:09:39;;;;;;;71.33;27.60;;;;;;;-0.91;93.36;100162.63;1865205;76;21129;-64
2021/03/04 03:12:10;;;;;;;59.85;25.27;;;;;;;-0.87;93.33;100160.95;1865531;76;21831;-64
2021/03/04 03:14:38;;;;;;;70.17;28.40;;;;;;;-0.87;93.16;100154.50;1840518;76;21592;-64
2021/03/04 03:17:06;;;;;;;81.60;27.65;;;;;;;-0.85;93.08;100157.97;1880346;76;21554;-64
2021/03/04 03:19:35;;;;;;;70.72;26.33;;;;;;;-0.87;93.30;100154.50;1879074;76;21338;-65
2021/03/04 03:22:03;;;;;;;68.97;27.95;;;;;;;-0.89;93.06;100145.85;1848549;76;21048;-72
2021/03/04 03:24:31;;;;;;;71.75;26.97;;;;;;;-0.83;93.44;100148.48;1782623;79;21046;-73
2021/03/04 03:26:58;;;;;;;75.90;29.63;;;;;;;-0.82;93.19;100144.20;1785540;80;21522;-72
2021/03/04 03:29:26;;;;;;;79.97;29.23;;;;;;;-0.80;93.13;100137.33;1766165;80;21150;-73
2021/03/04 03:31:54;;;;;;;80.15;29.00;;;;;;;-0.78;93.55;100136.48;1785527;80;21178;-72
2021/03/04 03:34:22;;;;;;;81.12;29.65;;;;;;;-0.79;93.07;100134.73;1765714;81;21142;-72
2021/03/04 03:36:50;;;;;;;73.33;27.75;;;;;;;-0.82;93.22;100128.25;1729975;80;21106;-73
2021/03/04 03:39:17;;;;;;;92.22;31.20;;;;;;;-0.81;93.25;100126.09;1765438;81;21131;-73
2021/03/04 03:41:46;;;;;;;90.10;31.90;;;;;;;-0.85;93.11;100124.35;1730546;80;21090;-73
2021/03/04 03:44:13;;;;;;;77.90;30.20;;;;;;;-0.85;93.32;100121.34;1765573;81;21499;-73
2021/03/04 03:46:41;;;;;;;91.63;33.18;;;;;;;-0.86;93.29;100116.14;1784938;80;21114;-71
2021/03/04 03:49:12;;;;;;;72.50;28.80;;;;;;;-0.83;93.44;100120.03;1765546;81;21055;-73
2021/03/04 03:51:40;;;;;;;;;;;;;;;-0.87;93.80;100106.66;1787801;80;21129;-72
2021/03/04 03:54:08;;;;;;;91.65;31.00;;;;;;;-0.85;93.59;100108.41;1754431;78;20257;-64
2021/03/04 03:56:37;;;;;;;77.92;30.25;;;;;;;-0.84;93.81;100102.80;1749133;82;21215;-62
2021/03/04 03:59:05;;;;;;;82.27;30.92;;;;;;;-0.80;93.95;100096.81;1748999;81;21138;-64
2021/03/04 04:01:35;;;;;;;88.80;32.58;;;;;;;-0.80;94.00;100085.61;1749008;82;21096;-64
2021/03/04 04:04:03;;;;;;;89.13;31.10;;;;;;;-0.79;94.21;100075.26;1749150;81;21079;-64
2021/03/04 04:06:32;;;;;;;94.32;33.13;;;;;;;-0.78;94.19;100067.95;1749153;82;21110;-64
2021/03/04 04:09:00;;;;;;;90.35;31.12;;;;;;;-0.76;94.51;100067.95;1751944;80;21390;-73
2021/03/04 04:11:29;;;;;;;94.77;33.23;;;;;;;-0.72;94.88;100058.94;1731009;80;21129;-71
2021/03/04 04:13:57;;;;;;;113.25;37.88;;;;;;;-0.68;94.65;100057.25;1694096;84;21104;-71
2021/03/04 04:16:25;;;;;;;108.97;37.25;;;;;;;-0.67;94.94;100044.34;1694099;84;21123;-73
2021/03/04 04:18:54;;;;;;;124.38;43.40;;;;;;;-0.69;94.75;100040.87;1694150;84;21150;-72
2021/03/04 04:21:22;;;;;;;132.20;43.80;;;;;;;-0.69;94.81;100034.81;1708064;83;21610;-71
2021/03/04 04:23:50;;;;;;;122.85;41.35;;;;;;;-0.65;95.38;100037.43;1718519;82;21137;-72
2021/03/04 04:26:18;;;;;;;128.70;44.53;;;;;;;-0.65;95.13;100029.67;1718583;83;21121;-72
2021/03/04 04:28:47;;;;;;;113.40;38.30;;;;;;;-0.58;95.30;100025.41;1718714;83;21124;-72
2021/03/04 04:31:15;;;;;;;123.05;43.50;;;;;;;-0.56;95.35;100017.23;1718616;83;21122;-72
2021/03/04 04:33:43;;;;;;;133.18;46.02;;;;;;;-0.56;95.17;100007.31;1718687;83;22392;-72
2021/03/04 04:36:10;;;;;;;121.20;41.80;;;;;;;-0.54;95.42;99996.55;1718579;83;21113;-71
2021/03/04 04:38:38;;;;;;;137.10;45.95;;;;;;;-0.51;95.22;100000.44;1718637;83;21135;-72
2021/03/04 04:41:05;;;;;;;132.10;45.10;;;;;;;-0.46;95.30;99997.05;1718778;83;21094;-73
2021/03/04 04:43:33;;;;;;;129.82;44.40;;;;;;;-0.43;95.26;99993.61;1718772;82;21153;-74
2021/03/04 04:46:01;;;;;;;114.77;37.55;;;;;;;-0.44;95.01;99991.86;1718690;83;21597;-71
2021/03/04 04:48:29;;;;;;;128.45;43.10;;;;;;;-0.43;94.97;99991.02;1718527;83;21201;-72
2021/03/04 04:50:59;;;;;;;121.55;42.98;;;;;;;-0.44;94.85;99978.92;1719177;83;21168;-70
2021/03/04 04:53:27;;;;;;;118.10;40.25;;;;;;;-0.44;94.72;99972.45;1758098;77;21142;-64
2021/03/04 04:55:54;;;;;;;113.85;39.63;;;;;;;-0.40;94.93;99967.73;1790991;80;21135;-64
2021/03/04 04:58:22;;;;;;;117.25;41.92;;;;;;;-0.39;94.73;99965.60;1790885;80;21380;-63
2021/03/04 05:00:49;;;;;;;115.60;41.65;;;;;;;-0.33;94.81;99970.78;1790947;80;21566;-63
2021/03/04 05:03:17;;;;;;;119.37;42.30;;;;;;;-0.30;94.62;99959.17;1790885;80;21775;-63
2021/03/04 05:05:45;;;;;;;106.25;40.67;;;;;;;-0.27;94.32;99959.17;1791071;80;21599;-64
2021/03/04 05:08:14;;;;;;;105.03;40.10;;;;;;;-0.20;94.43;99960.51;1806801;78;21113;-72
2021/03/04 05:10:41;;;;;;;106.55;41.23;;;;;;;-0.18;94.04;99963.94;1847832;77;21266;-72
2021/03/04 05:13:09;;;;;;;107.17;39.83;;;;;;;-0.17;93.76;99967.84;1847668;77;21439;-72
2021/03/04 05:15:37;;;;;;;99.00;36.08;;;;;;;-0.11;94.22;99960.55;1830670;77;21118;-73
2021/03/04 05:18:06;;;;;;;110.88;41.10;;;;;;;-0.07;93.65;99955.78;1791298;80;21511;-73
2021/03/04 05:20:34;;;;;;;98.62;36.70;;;;;;;-0.03;93.45;99948.47;1815372;78;21046;-72
2021/03/04 05:23:02;;;;;;;98.30;39.40;;;;;;;0.00;93.17;99945.91;1799131;78;21190;-71
2021/03/04 05:25:30;;;;;;;105.40;39.03;;;;;;;0.01;92.64;99930.80;1798195;79;21562;-72
2021/03/04 05:27:57;;;;;;;104.55;37.78;;;;;;;0.02;92.40;99927.77;1760427;81;21128;-72
2021/03/04 05:30:26;;;;;;;110.90;43.10;;;;;;;0.07;92.16;99928.64;1792748;80;21119;-73
2021/03/04 05:32:54;;;;;;;114.85;41.33;;;;;;;0.14;91.68;99928.67;1760471;81;21101;-73
2021/03/04 05:35:22;;;;;;;100.25;37.13;;;;;;;0.16;91.59;99928.25;1792822;80;21378;-71
2021/03/04 05:37:50;;;;;;;95.65;37.50;;;;;;;0.30;91.13;99928.68;1779316;76;21403;-67
2021/03/04 05:40:18;;;;;;;152.55;47.08;;;;;;;0.58;91.54;99918.80;1723628;82;21127;-66
2021/03/04 05:42:46;;;;;;;114.80;43.30;;;;;;;0.92;90.68;99921.78;1725054;83;21131;-65
2021/03/04 05:45:15;;;;;;;99.00;39.60;;;;;;;1.24;88.31;99917.83;1759649;80;21145;-64
2021/03/04 05:47:43;;;;;;;87.25;36.50;;;;;;;1.60;86.83;99912.11;1759349;80;22236;-64
2021/03/04 05:50:14;;;;;;;90.90;37.70;;;;;;;1.94;85.13;99914.55;1759276;80;21190;-65
2021/03/04 05:52:50;;;;;;;93.72;37.50;;;;;;;2.24;82.27;99907.87;1755574;78;21110;-72
2021/03/04 05:55:17;;;;;;;89.90;37.13;;;;;;;2.49;81.02;99894.70;1708962;82;21099;-72
2021/03/04 05:57:45;;;;;;;89.25;37.83;;;;;;;2.75;79.54;99902.72;1730659;82;21092;-72
2021/03/04 06:00:14;;;;;;;84.22;35.25;;;;;;;3.11;77.61;99890.66;1748525;82;21893;-72
2021/03/04 06:02:43;;;;;;;95.75;38.95;;;;;;;3.48;77.52;99882.44;1748286;82;21134;-71
2021/03/04 06:05:13;;;;;;;91.78;38.92;;;;;;;3.93;73.88;99878.83;1716011;82;21138;-72
2021/03/04 06:07:44;;;;;;;93.05;38.02;;;;;;;4.44;72.33;99872.85;1703140;78;21012;-67
2021/03/04 06:10:13;;;;;;;96.12;40.58;;;;;;;4.72;71.36;99856.29;1631286;88;21177;-66
2021/03/04 06:12:41;;;;;;;88.45;38.78;;;;;;;5.07;70.43;99860.00;1692820;84;21150;-65
2021/03/04 06:15:10;;;;;;;88.03;39.58;;;;;;;5.39;68.54;99853.30;1724206;83;21115;-66
2021/03/04 06:17:39;;;;;;;102.42;42.05;;;;;;;5.50;66.22;99850.02;1724234;83;21122;-65
2021/03/04 06:20:10;;;;;;;88.92;37.95;;;;;;;5.45;64.77;99845.32;1704424;83;21695;-66
2021/03/04 06:22:38;;;;;;;94.58;41.02;;;;;;;5.57;68.29;99844.23;1692666;78;21119;-66
2021/03/04 06:25:10;;;;;;;100.62;40.43;;;;;;;5.88;64.23;99837.88;1692805;84;21403;-66
2021/03/04 06:27:41;;;;;;;93.95;41.02;;;;;;;6.29;62.78;99829.55;1696149;83;21157;-67
2021/03/04 06:30:14;;;;;;;94.70;41.92;;;;;;;6.61;62.98;99831.82;1709798;83;21646;-69
2021/03/04 06:32:57;;;;;;;81.25;35.33;;;;;;;6.89;59.37;99835.42;1711836;83;21097;-65
2021/03/04 06:35:33;;;;;;;87.45;36.88;;;;;;;7.10;62.73;99822.19;1692939;84;21069;-64
2021/03/04 06:38:12;;;;;;;90.62;41.35;;;;;;;7.22;59.25;99823.61;1706087;79;21470;-72
2021/03/04 06:40:41;;;;;;;92.57;38.63;;;;;;;7.43;57.39;99821.28;1754086;81;21171;-71
2021/03/04 06:43:27;;;;;;;92.02;39.13;;;;;;;7.89;59.58;99818.59;1753287;80;21180;-72
2021/03/04 06:46:05;;;;;;;81.28;37.93;;;;;;;8.05;54.89;99815.92;1750636;82;21094;-70
2021/03/04 06:48:34;;;;;;;92.05;36.58;;;;;;;8.35;54.33;99805.31;1750539;82;21111;-71
2021/03/04 06:51:04;;;;;;;81.75;38.60;;;;;;;8.72;53.58;99804.10;1757580;80;21351;-72
2021/03/04 06:53:33;;;;;;;84.42;39.15;;;;;;;8.98;52.53;99785.67;1747430;78;21545;-67
2021/03/04 06:56:04;;;;;;;75.60;36.65;;;;;;;9.18;50.80;99781.48;1724330;83;21565;-66
2021/03/04 06:58:36;;;;;;;86.85;39.42;;;;;;;9.29;53.16;99783.23;1718879;82;21546;-67
2021/03/04 07:01:15;;;;;;;83.78;36.10;;;;;;;9.41;49.93;99774.91;1719056;82;21151;-67
2021/03/04 07:03:49;;;;;;;80.60;37.50;;;;;;;9.62;49.84;99781.58;1718803;83;22206;-66
2021/03/04 07:06:24;;;;;;;73.05;36.68;;;;;;;9.70;50.93;99779.48;1723627;82;21648;-67
2021/03/04 07:08:54;;;;;;;86.53;38.23;;;;;;;9.94;48.67;99770.22;1742996;79;21091;-71
2021/03/04 07:11:24;;;;;;;77.15;36.13;;;;;;;10.29;47.73;99765.73;1804054;79;21107;-71
2021/03/04 07:13:52;;;;;;;77.67;39.03;;;;;;;10.49;49.30;99770.64;1829919;78;21551;-72
2021/03/04 07:16:26;;;;;;;81.82;38.63;;;;;;;10.59;46.93;99763.20;1758939;80;21626;-75
2021/03/04 07:18:57;;;;;;;91.65;40.55;;;;;;;10.59;48.70;99756.14;1810284;78;21099;-72
2021/03/04 07:21:29;;;;;;;77.95;37.88;;;;;;;10.51;46.91;99749.02;1758159;80;21582;-71
2021/03/04 07:23:56;;;;;;;;;;;;;;;10.69;46.96;99735.06;1806630;77;21099;-68
2021/03/04 07:26:24;;;;;;;82.37;39.48;;;;;;;11.00;49.29;99725.81;1819362;77;20234;-68
2021/03/04 07:28:53;;;;;;;72.85;38.23;;;;;;;11.11;44.99;99722.67;1829770;77;21099;-68
2021/03/04 07:31:21;;;;;;;86.10;39.73;;;;;;;11.39;46.03;99718.31;1826173;77;21117;-67
2021/03/04 07:33:50;;;;;;;84.77;41.80;;;;;;;11.18;45.48;99712.70;1829139;77;21118;-68
2021/03/04 07:36:23;;;;;;;84.10;39.75;;;;;;;11.20;45.61;99713.49;1826488;77;21079;-67
2021/03/04 07:39:03;;;;;;;83.50;41.50;;;;;;;11.43;45.45;99706.67;1788315;77;21542;-71
2021/03/04 07:41:44;;;;;;;67.15;32.75;;;;;;;11.30;45.37;99702.46;1731195;81;21582;-73
2021/03/04 07:44:29;;;;;;;76.20;37.50;;;;;;;11.26;44.85;99688.18;1727507;81;21146;-75
2021/03/04 07:47:02;;;;;;;82.10;39.03;;;;;;;11.39;45.97;99678.77;1728649;81;21543;-73
2021/03/04 07:49:34;;;;;;;78.75;40.35;;;;;;;11.94;44.75;99682.71;1736291;81;21198;-71
2021/03/04 07:52:17;;;;;;;72.90;39.18;;;;;;;12.38;42.98;99674.31;1704061;81;21099;-70
2021/03/04 07:54:49;;;;;;;73.92;40.28;;;;;;;12.65;45.39;99671.15;1740597;78;21297;-68
2021/03/04 07:57:20;;;;;;;68.50;37.88;;;;;;;13.13;41.74;99669.45;1749233;80;21427;-67
2021/03/04 08:00:04;;;;;;;69.53;34.75;;;;;;;13.30;40.86;99663.75;1750367;80;21106;-67
2021/03/04 08:02:42;;;;;;;69.00;36.63;;;;;;;13.37;41.34;99655.86;1755856;80;21138;-67
2021/03/04 08:05:22;;;;;;;66.82;35.70;;;;;;;13.39;40.27;99658.80;1718947;82;21167;-67
2021/03/04 08:07:51;;;;;;;65.80;33.18;;;;;;;13.36;40.01;99644.88;1694116;82;21469;-68
2021/03/04 08:10:25;;;;;;;64.85;35.17;;;;;;;13.05;40.59;99634.66;1697851;78;21191;-70
2021/03/04 08:12:55;;;;;;;69.47;35.95;;;;;;;13.17;40.33;99632.66;1766871;81;21534;-71
2021/03/04 08:15:31;;;;;;;68.22;35.28;;;;;;;13.46;40.23;99627.56;1748622;80;21108;-71
2021/03/04 08:18:22;;;;;;;75.75;37.30;;;;;;;13.27;41.06;99630.81;1829996;78;22759;-72
2021/03/04 08:20:51;;;;;;;65.92;34.25;;;;;;;13.12;40.69;99620.16;1775302;80;21250;-72
2021/03/04 08:23:19;;;;;;;71.40;35.98;;;;;;;13.33;40.67;99618.61;1767724;77;21531;-67
2021/03/04 08:25:48;;;;;;;71.02;35.00;;;;;;;13.54;40.59;99614.73;1812047;78;21140;-67
2021/03/04 08:28:29;;;;;;;62.20;33.13;;;;;;;13.39;40.06;99609.02;1817517;78;21550;-66
2021/03/04 08:31:06;;;;;;;68.17;35.83;;;;;;;12.96;41.98;99604.77;1791126;78;21146;-67
2021/03/04 08:33:35;;;;;;;64.85;34.98;;;;;;;12.78;43.02;99603.98;1818030;78;21145;-67
2021/03/04 08:36:04;;;;;;;59.88;31.42;;;;;;;13.06;41.33;99599.34;1790210;78;22099;-67
2021/03/04 08:38:42;;;;;;;64.53;32.08;;;;;;;13.22;41.87;99586.97;1806671;78;21306;-72
2021/03/04 08:41:12;;;;;;;55.12;29.95;;;;;;;13.30;40.70;99583.09;1772610;80;21168;-71
2021/03/04 08:43:42;;;;;;;56.90;29.95;;;;;;;13.70;40.26;99576.81;1779518;80;21206;-71
2021/03/04 08:46:12;;;;;;;64.12;32.75;;;;;;;14.22;40.58;99571.90;1720359;83;21186;-72
2021/03/04 08:48:44;;;;;;;50.35;27.48;;;;;;;14.76;38.26;99563.29;1720101;82;21467;-70
2021/03/04 08:51:15;;;;;;;53.35;28.27;;;;;;;15.18;37.57;99560.15;1720674;83;21261;-71
2021/03/04 08:53:44;;;;;;;60.95;31.33;;;;;;;15.06;37.36;99546.37;1731490;78;21597;-67
2021/03/04 08:56:12;;;;;;;48.68;26.77;;;;;;;14.36;38.34;99551.67;1723372;82;21185;-67
2021/03/04 08:58:43;;;;;;;56.60;29.72;;;;;;;14.21;40.15;99550.80;1758931;81;21712;-66
2021/03/04 09:01:12;;;;;;;51.90;28.15;;;;;;;14.33;38.54;99552.68;1759226;81;22297;-68
2021/03/04 09:03:44;;;;;;;50.85;28.12;;;;;;;14.21;38.79;99539.72;1747001;82;22171;-66
2021/03/04 09:06:15;;;;;;;56.83;31.35;;;;;;;13.72;40.55;99540.53;1759114;81;21171;-67
2021/03/04 09:08:48;;;;;;;51.08;26.45;;;;;;;13.70;40.28;99538.45;1757114;80;21613;-65
2021/03/04 09:11:34;;;;;;;51.48;27.10;;;;;;;13.96;41.00;99540.36;1748420;82;22301;-66
2021/03/04 09:14:08;;;;;;;51.30;27.77;;;;;;;14.25;40.12;99531.13;1748016;81;21431;-66
2021/03/04 09:16:48;;;;;;;45.58;25.08;;;;;;;14.11;38.92;99528.01;1747880;80;21182;-66
2021/03/04 09:19:34;;;;;;;46.10;25.70;;;;;;;13.72;40.13;99519.36;1739132;82;21108;-65
2021/03/04 09:22:10;;;;;;;50.75;28.07;;;;;;;12.95;42.41;99526.41;1739042;82;21208;-65
2021/03/04 09:24:39;;;;;;;50.67;25.70;;;;;;;12.59;42.01;99526.22;1734986;79;21213;-71
2021/03/04 09:27:09;;;;;;;47.50;25.70;;;;;;;12.82;43.56;99530.22;1735099;82;21673;-71
2021/03/04 09:29:39;;;;;;;;;;;;;;;13.07;41.53;99525.73;1732158;82;21214;-70
2021/03/04 09:32:10;;;;;;;48.23;25.80;;;;;;;12.98;40.99;99509.92;1729947;82;20330;-71
2021/03/04 09:34:45;;;;;;;55.33;28.17;;;;;;;13.10;41.44;99514.97;1729740;82;21178;-72
2021/03/04 09:37:26;;;;;;;50.20;27.42;;;;;;;13.34;40.32;99502.62;1729947;82;21622;-72
2021/03/04 09:39:56;;;;;;;53.78;27.32;;;;;;;13.60;40.53;99495.34;1739066;79;21261;-67
2021/03/04 09:42:37;;;;;;;53.00;27.95;;;;;;;13.57;41.17;99494.66;1745080;82;21143;-68
2021/03/04 09:45:10;;;;;;;59.03;28.40;;;;;;;13.39;40.38;99486.88;1745234;82;21539;-66
2021/03/04 09:47:45;;;;;;;57.15;27.93;;;;;;;13.39;40.58;99483.39;1745035;82;21174;-67
2021/03/04 09:50:26;;;;;;;56.50;30.08;;;;;;;13.66;40.70;99477.38;1744159;80;21151;-67
2021/03/04 09:53:07;;;;;;;56.70;28.07;;;;;;;13.72;39.94;99467.77;1750765;80;22120;-68
2021/03/04 09:55:42;;;;;;;49.20;26.17;;;;;;;13.47;40.07;99468.38;1791032;78;21631;-70
2021/03/04 09:58:24;;;;;;;57.58;29.72;;;;;;;13.16;41.80;99465.72;1750925;81;21184;-71
2021/03/04 10:00:59;;;;;;;59.23;29.65;;;;;;;13.35;40.67;99462.03;1777993;80;21642;-69
2021/03/04 10:03:38;;;;;;;58.10;29.48;;;;;;;13.69;40.06;99458.22;1788781;79;21206;-71
2021/03/04 10:06:21;;;;;;;60.00;29.37;;;;;;;13.88;40.08;99455.30;1785734;79;21545;-71
2021/03/04 10:08:55;;;;;;;65.95;30.43;;;;;;;13.89;39.23;99447.72;1784085;77;21097;-68
2021/03/04 10:11:24;;;;;;;54.63;29.63;;;;;;;14.14;38.95;99450.18;1808827;79;21099;-66
2021/03/04 10:13:52;;;;;;;73.10;31.23;;;;;;;14.42;39.29;99432.94;1796542;79;21173;-68
2021/03/04 10:16:20;;;;;;;63.15;29.52;;;;;;;14.48;37.65;99413.13;1766576;79;21728;-66
2021/03/04 10:18:50;;;;;;;55.50;28.92;;;;;;;14.40;38.58;99420.27;1775900;80;22406;-68
2021/03/04 10:21:19;;;;;;;58.02;26.85;;;;;;;14.30;38.09;99408.53;1776180;80;21142;-66
2021/03/04 10:23:49;;;;;;;52.67;27.80;;;;;;;14.18;38.45;99410.65;1774507;79;21185;-71
2021/03/04 10:26:18;;;;;;;64.58;30.77;;;;;;;14.17;40.33;99403.64;1727429;81;21197;-71
2021/03/04 10:28:46;;;;;;;52.58;28.20;;;;;;;14.21;37.87;99394.55;1745058;81;21166;-72
2021/03/04 10:31:13;;;;;;;57.75;30.45;;;;;;;14.58;38.26;99385.59;1736738;81;21225;-70
2021/03/04 10:33:41;;;;;;;62.23;30.10;;;;;;;14.65;37.64;99381.59;1748349;81;21182;-68
2021/03/04 10:36:11;;;;;;;46.35;24.12;;;;;;;14.68;37.44;99373.45;1753342;81;21150;-68
2021/03/04 10:38:45;;;;;;;53.92;28.52;;;;;;;14.90;38.04;99373.70;1736681;81;21252;-67
2021/03/04 10:41:14;;;;;;;52.53;28.42;;;;;;;15.05;36.37;99381.60;1690742;83;21224;-68
2021/03/04 10:43:41;;;;;;;50.38;27.42;;;;;;;15.34;36.84;99370.31;1708608;82;21197;-68
2021/03/04 10:46:09;;;;;;;55.45;27.98;;;;;;;15.71;37.21;99373.97;1692973;83;21663;-68
2021/03/04 10:48:38;;;;;;;49.70;26.77;;;;;;;15.86;35.20;99365.38;1723509;82;21651;-67
2021/03/04 10:51:05;;;;;;;47.00;26.15;;;;;;;15.99;35.43;99358.73;1734671;82;21242;-68
2021/03/04 10:53:34;;;;;;;53.17;28.52;;;;;;;15.61;37.34;99356.94;1718752;82;21159;-67
2021/03/04 10:56:03;;;;;;;52.23;28.90;;;;;;;15.36;35.84;99351.16;1812971;77;21226;-72
2021/03/04 10:58:30;;;;;;;54.83;27.52;;;;;;;15.16;37.45;99351.23;1807992;78;21602;-73
2021/03/04 11:00:59;;;;;;;52.27;26.45;;;;;;;15.02;35.99;99353.95;1806249;78;21217;-72
2021/03/04 11:05:15;;;;;;;53.17;29.57;;;;;;;14.89;36.80;99340.69;1804060;77;23410;-72
2021/03/04 11:07:42;;;;;;;56.48;29.80;;;;;;;14.59;36.65;99332.51;1775871;79;21164;-71
2021/03/04 11:10:12;;;;;;;53.98;28.50;;;;;;;13.84;38.76;99338.65;1727360;80;22267;-65
2021/03/04 11:12:42;;;;;;;54.90;28.67;;;;;;;13.27;39.70;99339.95;1771660;80;21206;-65
2021/03/04 11:15:12;;;;;;;55.10;28.80;;;;;;;12.70;41.07;99329.66;1784877;79;21233;-68
2021/03/04 11:17:40;;;;;;;54.83;29.95;;;;;;;12.65;41.02;99314.52;1777830;80;21150;-65
2021/03/04 11:20:10;;;;;;;54.95;28.35;;;;;;;12.82;41.21;99307.42;1734636;81;21195;-65
2021/03/04 11:22:38;;;;;;;54.27;27.67;;;;;;;12.97;41.17;99301.20;1747171;81;21406;-64
2021/03/04 11:25:08;;;;;;;53.58;28.70;;;;;;;12.93;40.88;99291.30;1722379;79;21216;-66
2021/03/04 11:27:37;;;;;;;51.53;27.20;;;;;;;12.90;41.13;99317.05;1644051;86;21657;-67
2021/03/04 11:30:07;;;;;;;56.28;28.17;;;;;;;12.88;41.66;99305.72;1686166;85;21157;-67
2021/03/04 11:32:38;;;;;;;51.83;27.62;;;;;;;12.74;41.11;99329.84;1652759;86;21599;-67
2021/03/04 11:35:09;;;;;;;53.58;28.95;;;;;;;12.68;41.19;99307.77;1704310;83;21368;-67